Time;durP1;ratioP1;P1;durP2;ratioP2;P2;SDS_P1;SDS_P2;PMS_P1;PMS_P2;Temp;Humidity;BMP_temperature;BMP_pressure;BME280_temperature;BME280_humidity;BME280_pressure;Samples;Min_cycle;Max_cycle;Signal;HPM_P1;HPM_P2
2023/01/26 00:04:36;;;;;;;;;;;;;;;-0.31;87.71;98403.94;10293088;28;20405;-48
2023/01/26 00:09:35;;;;;;;21.45;11.00;;;;;;;-0.26;87.24;98402.50;10294704;28;20000;-48
2023/01/26 00:14:48;;;;;;;22.73;11.10;;;;;;;-0.72;88.14;98338.91;10294396;28;20033;-48
2023/01/26 00:19:47;;;;;;;24.23;10.38;;;;;;;-0.34;88.26;98398.69;10294430;28;20058;-47
2023/01/26 00:24:46;;;;;;;27.13;12.82;;;;;;;-0.27;88.27;98400.78;10293329;28;20137;-47
2023/01/26 00:29:45;;;;;;;;;;;;;;;-0.17;88.36;98387.69;10293933;28;20062;-47
2023/01/26 00:34:44;;;;;;;26.53;13.07;;;;;;;-0.35;88.57;98340.84;10291950;28;19964;-48
2023/01/26 00:39:43;;;;;;;;;;;;;;;0.06;88.77;98396.50;10279544;28;20045;-48
2023/01/26 00:44:42;;;;;;;28.45;12.77;;;;;;;0.21;88.21;98394.72;10284523;28;19920;-48
2023/01/26 00:49:41;;;;;;;26.50;13.13;;;;;;;0.07;87.67;98388.03;10290825;28;20061;-49
2023/01/26 00:54:40;;;;;;;29.23;11.93;;;;;;;-0.23;88.55;98393.38;10288381;28;20144;-49
2023/01/26 00:59:39;;;;;;;25.60;12.70;;;;;;;-0.62;89.82;98372.63;10281384;28;20077;-47
2023/01/26 01:04:38;;;;;;;;;;;;;;;-0.57;90.24;98369.47;10285440;28;20061;-48
2023/01/26 01:09:37;;;;;;;31.07;13.53;;;;;;;-0.52;90.56;98356.13;10285624;28;19914;-50
2023/01/26 01:14:36;;;;;;;;;;;;;;;-0.52;90.34;98340.84;10286373;28;20050;-48
2023/01/26 01:19:34;;;;;;;36.30;16.55;;;;;;;-0.47;90.20;98341.09;10285963;28;19968;-47
2023/01/26 01:24:34;;;;;;;31.23;14.93;;;;;;;-0.32;90.30;98336.78;10287021;28;20124;-48
2023/01/26 01:29:33;;;;;;;34.22;17.55;;;;;;;-0.32;89.89;98338.44;10285755;28;20108;-49
2023/01/26 01:34:32;;;;;;;;;;;;;;;-0.38;89.79;98337.31;10284072;28;20121;-47
2023/01/26 01:39:30;;;;;;;25.75;11.85;;;;;;;-0.62;89.71;98305.50;10288752;28;19999;-49
2023/01/26 01:44:29;;;;;;;29.80;14.38;;;;;;;-0.29;89.51;98336.94;10287823;28;20042;-48
2023/01/26 01:49:39;;;;;;;;;;;;;;;-0.28;88.98;98335.25;10289423;28;20029;-49
2023/01/26 01:55:00;;;;;;;27.73;12.57;;;;;;;-0.55;89.81;98327.09;10286600;28;19956;-48
2023/01/26 02:00:07;;;;;;;30.20;15.13;;;;;;;-0.75;90.62;98328.56;10285800;28;20136;-48
2023/01/26 02:05:20;;;;;;;30.50;14.63;;;;;;;-0.80;90.90;98329.19;10284814;28;20074;-49
2023/01/26 02:10:20;;;;;;;29.10;13.35;;;;;;;-0.72;90.23;98327.09;10284370;28;20066;-48
2023/01/26 02:15:19;;;;;;;31.40;13.95;;;;;;;-0.93;90.16;98288.63;10287626;28;20065;-48
2023/01/26 02:20:44;;;;;;;33.20;16.05;;;;;;;-0.70;90.20;98322.91;10287152;28;20044;-47
2023/01/26 02:25:51;;;;;;;33.28;14.43;;;;;;;-0.78;90.47;98318.22;10283063;28;20117;-47
2023/01/26 02:30:52;;;;;;;34.75;16.55;;;;;;;-0.78;91.01;98302.94;10286511;28;21125;-47
2023/01/26 02:35:51;;;;;;;28.85;16.35;;;;;;;-0.80;90.76;98270.59;10283788;28;20061;-47
2023/01/26 02:40:57;;;;;;;27.58;12.98;;;;;;;-0.63;90.13;98289.31;10285147;28;20030;-50
2023/01/26 02:45:56;;;;;;;31.45;14.90;;;;;;;-0.47;90.54;98283.31;10284077;28;20073;-48
2023/01/26 02:50:55;;;;;;;;;;;;;;;-0.44;90.04;98270.75;10287070;28;20072;-47
2023/01/26 02:55:54;;;;;;;20.63;11.23;;;;;;;-0.30;89.48;98257.78;10285389;28;19948;-50
2023/01/26 03:00:53;;;;;;;32.50;14.32;;;;;;;-0.31;89.70;98262.00;10282414;28;20042;-47
2023/01/26 03:05:52;;;;;;;34.13;15.13;;;;;;;-0.28;89.86;98246.00;10281504;28;20436;-49
2023/01/26 03:10:50;;;;;;;32.40;15.40;;;;;;;-0.07;89.96;98252.13;10281183;28;20036;-47
2023/01/26 03:15:53;;;;;;;;;;;;;;;0.05;89.69;98250.19;10283082;28;20044;-49
2023/01/26 03:31:27;;;;;;;27.48;13.20;;;;;;;0.08;88.05;98229.06;10284586;28;20081;-48
2023/01/26 03:36:26;;;;;;;30.38;13.80;;;;;;;-0.09;88.31;98222.25;10292711;28;20029;-49
2023/01/26 03:57:17;;;;;;;38.38;16.77;;;;;;;-0.77;90.98;98190.00;10295662;28;20528;-48
2023/01/26 04:23:26;;;;;;;30.85;13.85;;;;;;;-0.94;92.57;98186.63;10292458;28;20126;-49
2023/01/26 04:28:25;;;;;;;37.13;18.15;;;;;;;-0.92;92.77;98162.09;10293898;28;20053;-49
2023/01/26 04:33:24;;;;;;;;;;;;;;;-0.56;91.94;98162.19;10295571;28;20038;-46
2023/01/26 04:38:22;;;;;;;32.38;14.77;;;;;;;-0.58;92.09;98141.69;10308955;28;20466;-47
2023/01/26 04:43:21;;;;;;;38.67;18.88;;;;;;;-0.63;92.30;98123.63;10295834;28;20485;-47
2023/01/26 04:48:20;;;;;;;;;;;;;;;-0.75;91.94;98129.81;10290553;28;20080;-49
2023/01/26 04:53:19;;;;;;;34.13;17.55;;;;;;;-0.78;92.25;98110.16;10290700;28;19944;-47
2023/01/26 04:58:18;;;;;;;35.38;18.00;;;;;;;-0.59;92.16;98138.28;10291840;28;20046;-49
2023/01/26 05:03:17;;;;;;;;;;;;;;;-0.67;92.11;98149.78;10290712;28;20732;-47
2023/01/26 05:08:18;;;;;;;35.50;19.73;;;;;;;-0.72;92.28;98150.34;10291463;28;20795;-48
2023/01/26 05:13:17;;;;;;;31.52;14.65;;;;;;;-0.99;92.57;98130.34;10265477;28;20096;-47
2023/01/26 05:18:16;;;;;;;37.58;19.52;;;;;;;-1.25;92.44;98048.44;10289522;28;20104;-48
2023/01/26 05:23:15;;;;;;;31.15;15.63;;;;;;;-0.65;91.63;98138.00;10290551;28;20044;-50
2023/01/26 05:28:14;;;;;;;;;;;;;;;-0.69;91.62;98142.88;10285720;28;20046;-47
2023/01/26 05:33:14;;;;;;;37.70;17.85;;;;;;;-0.50;91.34;98137.88;10321379;28;19915;-47
2023/01/26 05:38:14;;;;;;;42.20;19.92;;;;;;;-0.37;90.65;98141.84;10288808;28;20093;-47
2023/01/26 05:43:13;;;;;;;32.67;16.50;;;;;;;-0.40;90.25;98142.59;10288381;28;20053;-48
2023/01/26 05:48:12;;;;;;;33.58;16.30;;;;;;;-0.64;90.66;98105.72;10290384;28;20076;-49
2023/01/26 05:53:11;;;;;;;;;;;;;;;-0.48;90.56;98136.25;10290623;28;20049;-48
2023/01/26 05:58:10;;;;;;;33.17;18.00;;;;;;;-0.30;89.90;98130.28;10287702;28;19917;-48
2023/01/26 06:03:08;;;;;;;;;;;;;;;-0.29;89.13;98119.31;10289319;28;20108;-47
2023/01/26 06:08:07;;;;;;;37.47;17.98;;;;;;;-0.30;89.40;98125.19;10288795;28;20785;-49
2023/01/26 06:13:06;;;;;;;32.83;17.25;;;;;;;-0.47;89.22;98125.25;10286780;28;20390;-50
2023/01/26 06:18:05;;;;;;;;;;;;;;;-0.37;89.20;98122.38;10284229;28;20057;-48
2023/01/26 06:23:05;;;;;;;34.70;16.67;;;;;;;-0.17;88.43;98117.31;10280665;28;19957;-47
2023/01/26 06:28:05;;;;;;;34.08;16.95;;;;;;;-0.25;88.24;98116.06;10283058;28;20833;-47
2023/01/26 06:33:05;;;;;;;28.98;14.90;;;;;;;-0.35;88.20;98122.41;10280061;28;20529;-48
2023/01/26 06:38:04;;;;;;;30.58;14.93;;;;;;;-0.42;89.52;98115.28;10282760;28;20077;-50
2023/01/26 06:43:03;;;;;;;29.95;15.20;;;;;;;-0.42;89.02;98112.72;10286173;28;20044;-49
2023/01/26 06:48:02;;;;;;;;;;;;;;;-0.42;89.17;98098.28;10285557;28;20087;-48
2023/01/26 06:53:12;;;;;;;40.40;20.92;;;;;;;-0.31;89.15;98097.94;10286617;28;20359;-47
2023/01/26 06:58:11;;;;;;;29.95;15.38;;;;;;;-0.42;88.40;98085.56;10287628;28;20070;-48
2023/01/26 07:03:10;;;;;;;43.35;22.17;;;;;;;-0.25;88.73;98065.97;10286918;28;20032;-48
2023/01/26 07:08:09;;;;;;;41.75;20.83;;;;;;;-0.17;88.03;98084.16;10282853;28;20072;-49
2023/01/26 07:13:08;;;;;;;35.45;19.35;;;;;;;-0.34;89.04;98078.28;10283793;28;20056;-49
2023/01/26 07:18:07;;;;;;;105.00;48.75;;;;;;;-0.23;88.68;98088.97;10283718;28;20037;-49
2023/01/26 07:23:06;;;;;;;;;;;;;;;-0.04;88.09;98081.38;10285525;28;20117;-47
2023/01/26 07:28:08;;;;;;;35.13;17.38;;;;;;;0.15;88.13;98079.66;10286402;28;19945;-50
2023/01/26 07:33:07;;;;;;;29.83;16.77;;;;;;;0.10;87.28;98086.22;10285131;28;20089;-49
2023/01/26 07:38:06;;;;;;;28.08;16.30;;;;;;;0.07;87.47;98070.78;10285597;28;20045;-49
2023/01/26 07:43:05;;;;;;;;;;;;;;;0.17;87.24;98071.28;10285720;28;20499;-49
2023/01/26 07:48:04;;;;;;;26.08;13.52;;;;;;;0.25;86.67;98057.16;10282954;28;20008;-47
2023/01/26 07:53:03;;;;;;;;;;;;;;;0.48;86.98;98052.19;10282272;28;20057;-50
2023/01/26 07:58:02;;;;;;;28.88;16.00;;;;;;;0.51;85.94;98054.88;10276032;28;19952;-48
2023/01/26 08:03:01;;;;;;;29.75;15.68;;;;;;;-0.07;85.19;97966.44;10273080;28;20133;-50
2023/01/26 08:08:00;;;;;;;21.40;10.73;;;;;;;0.33;85.13;98052.38;10281710;28;20052;-47
2023/01/26 08:13:00;;;;;;;32.85;16.33;;;;;;;-0.17;85.51;97974.50;10266783;28;20129;-48
2023/01/26 08:18:02;;;;;;;21.77;12.18;;;;;;;0.14;85.38;98057.47;10277054;28;20117;-47
2023/01/26 08:23:01;;;;;;;23.65;12.68;;;;;;;0.21;84.56;98056.94;10282795;28;20125;-48
2023/01/26 08:28:00;;;;;;;26.52;13.63;;;;;;;0.43;85.46;98054.53;10285384;28;20036;-50
2023/01/26 08:32:59;;;;;;;63.70;33.53;;;;;;;0.66;86.13;98039.31;10286242;28;20125;-48
2023/01/26 08:37:58;;;;;;;23.80;14.15;;;;;;;1.05;85.75;98029.03;10288925;28;20042;-48
2023/01/26 08:43:00;;;;;;;19.75;11.35;;;;;;;0.68;85.05;97961.09;10281684;28;20125;-47
2023/01/26 08:47:59;;;;;;;19.65;10.40;;;;;;;1.07;83.46;98017.19;10289213;28;20065;-47
2023/01/26 08:52:58;;;;;;;50.92;26.25;;;;;;;1.12;84.79;98018.22;10289297;28;20028;-50
2023/01/26 08:57:57;;;;;;;31.63;18.58;;;;;;;0.97;85.62;97963.97;10288759;28;20162;-49
2023/01/26 09:03:01;;;;;;;34.42;20.52;;;;;;;1.41;85.21;97998.06;10288505;28;20120;-49
2023/01/26 09:08:00;;;;;;;45.83;24.13;;;;;;;1.64;85.09;98007.47;10287680;28;20077;-48
2023/01/26 09:13:00;;;;;;;29.00;16.38;;;;;;;1.83;84.41;98010.72;10287690;28;20065;-48
2023/01/26 09:17:59;;;;;;;62.95;35.70;;;;;;;1.50;82.52;98012.06;10286383;28;20065;-50
2023/01/26 09:22:58;;;;;;;40.63;22.80;;;;;;;1.63;84.49;97997.22;10288566;28;20140;-50
2023/01/26 09:27:57;;;;;;;39.45;23.98;;;;;;;1.93;84.78;98000.03;10289235;28;20137;-48
2023/01/26 09:33:00;;;;;;;36.10;20.15;;;;;;;2.16;82.91;97988.94;10287000;28;20065;-50
2023/01/26 09:38:00;;;;;;;70.88;36.85;;;;;;;2.12;80.49;97986.22;10287428;28;20049;-50
2023/01/26 09:43:00;;;;;;;36.03;18.92;;;;;;;2.30;80.97;97965.50;10287468;28;20129;-50
2023/01/26 09:48:22;;;;;;;28.52;16.13;;;;;;;2.38;81.47;97959.84;10287602;28;20129;-48
2023/01/26 09:53:27;;;;;;;23.23;13.60;;;;;;;2.31;80.41;97949.34;10287147;28;20560;-47
2023/01/26 09:58:34;;;;;;;38.53;19.00;;;;;;;2.16;80.75;97945.44;10287649;28;20120;-48
2023/01/26 10:03:34;;;;;;;62.72;28.85;;;;;;;2.25;80.74;97944.00;10285945;28;20152;-50
2023/01/26 10:08:33;;;;;;;149.32;58.42;;;;;;;2.09;81.39;97930.66;10289168;28;20077;-50
2023/01/26 10:13:33;;;;;;;;;;;;;;;2.25;82.70;97926.94;10284479;28;20119;-47
2023/01/26 10:18:39;;;;;;;53.95;25.15;;;;;;;2.03;81.91;97851.09;10289791;28;19952;-49
2023/01/26 10:23:46;;;;;;;32.88;17.27;;;;;;;2.42;80.35;97917.28;10275056;28;20076;-48
2023/01/26 10:28:47;;;;;;;28.15;16.70;;;;;;;2.32;80.93;97926.31;10288790;28;20073;-48
2023/01/26 10:34:19;;;;;;;64.68;33.72;;;;;;;2.61;82.14;97915.34;10287611;28;20065;-49
2023/01/26 10:39:18;;;;;;;47.13;29.75;;;;;;;2.85;81.91;97897.31;10267960;28;20093;-47
2023/01/26 10:44:33;;;;;;;41.70;24.25;;;;;;;2.99;79.69;97883.22;10282960;28;20045;-49
2023/01/26 10:49:32;;;;;;;28.95;16.02;;;;;;;3.05;80.00;97879.97;10286115;28;20069;-49
2023/01/26 10:54:35;;;;;;;29.33;16.98;;;;;;;3.02;79.90;97873.06;10286176;28;20509;-47
2023/01/26 10:59:45;;;;;;;24.75;14.00;;;;;;;3.36;81.14;97864.69;10286906;28;20524;-48
2023/01/26 11:05:00;;;;;;;28.80;16.88;;;;;;;3.66;80.47;97830.47;10273182;28;20066;-50
2023/01/26 11:10:24;;;;;;;23.77;15.45;;;;;;;4.07;78.71;97825.53;10284916;28;20069;-48
2023/01/26 11:15:26;;;;;;;33.60;23.70;;;;;;;4.19;75.44;97812.16;10285593;28;20068;-49
2023/01/26 11:20:33;;;;;;;21.65;13.32;;;;;;;4.34;75.67;97809.97;10286642;28;20504;-49
2023/01/26 11:25:50;;;;;;;24.88;13.13;;;;;;;4.26;73.89;97801.19;10284392;28;20072;-50
2023/01/26 11:31:32;;;;;;;21.02;12.77;;;;;;;4.35;76.15;97792.84;10275302;28;20081;-49
2023/01/26 11:36:39;;;;;;;19.98;11.55;;;;;;;4.27;71.07;97777.25;10285538;28;20072;-50
2023/01/26 11:41:56;;;;;;;86.53;42.15;;;;;;;3.88;71.12;97779.69;10282699;28;20062;-50
2023/01/26 11:47:48;;;;;;;29.35;15.57;;;;;;;3.90;75.26;97765.22;10285226;28;20061;-48
2023/01/26 11:52:53;;;;;;;63.33;33.15;;;;;;;3.58;74.42;97753.25;10257994;28;20076;-48
2023/01/26 11:57:55;;;;;;;36.22;21.33;;;;;;;3.36;74.96;97761.22;10292374;28;20064;-48
2023/01/26 12:03:03;;;;;;;16.02;9.35;;;;;;;3.14;73.77;97744.34;10293189;28;20084;-47
2023/01/26 12:08:10;;;;;;;13.90;8.98;;;;;;;2.49;71.87;97755.31;10291777;28;20076;-48
2023/01/26 12:13:35;;;;;;;14.27;7.90;;;;;;;2.46;74.08;97739.81;10292799;28;20065;-48
2023/01/26 12:18:40;;;;;;;69.05;39.45;;;;;;;2.53;75.63;97743.44;10291236;28;20083;-48
2023/01/26 12:23:57;;;;;;;25.23;16.50;;;;;;;2.37;76.46;97749.78;10292179;28;20062;-47
2023/01/26 12:29:13;;;;;;;78.13;37.25;;;;;;;2.40;77.68;97739.66;10291749;28;20470;-49
2023/01/26 12:34:13;;;;;;;39.47;22.25;;;;;;;2.35;77.46;97731.81;10291723;28;20062;-48
2023/01/26 12:39:26;;;;;;;85.00;43.08;;;;;;;2.28;78.04;97727.34;10292373;28;20060;-47
2023/01/26 12:44:32;;;;;;;15.05;8.10;;;;;;;2.25;77.13;97711.00;10291405;28;20085;-48
2023/01/26 12:49:36;;;;;;;54.40;29.15;;;;;;;2.03;77.69;97694.97;10291305;28;20453;-47
2023/01/26 12:54:45;;;;;;;91.05;44.15;;;;;;;2.15;78.55;97710.72;10290626;28;20057;-50
2023/01/26 12:59:46;;;;;;;17.83;10.40;;;;;;;2.24;77.34;97711.84;10291037;28;20061;-49
2023/01/26 13:04:45;;;;;;;47.22;27.50;;;;;;;2.22;78.48;97709.22;10289286;28;20545;-47
2023/01/26 13:10:13;;;;;;;38.25;25.95;;;;;;;2.02;77.43;97698.38;10290524;28;20091;-49
2023/01/26 13:15:15;;;;;;;13.95;8.52;;;;;;;2.05;77.23;97688.22;10289249;28;20076;-47
2023/01/26 13:20:44;;;;;;;17.70;10.00;;;;;;;1.95;77.12;97681.09;10290277;28;20057;-50
2023/01/26 13:26:05;;;;;;;57.63;39.33;;;;;;;1.81;78.61;97677.19;10279446;28;20077;-47
2023/01/26 13:31:05;;;;;;;23.55;15.98;;;;;;;1.52;79.85;97682.22;10288541;28;20065;-47
2023/01/26 13:36:18;;;;;;;21.75;14.27;;;;;;;1.58;80.06;97672.22;10288007;28;20140;-48
2023/01/26 13:41:19;;;;;;;41.67;22.38;;;;;;;1.32;79.57;97679.03;10290061;28;20074;-48
2023/01/26 13:46:36;;;;;;;16.08;9.68;;;;;;;0.97;80.31;97673.56;10288708;28;20049;-48
2023/01/26 13:51:35;;;;;;;19.38;11.52;;;;;;;0.94;81.02;97664.91;10289062;28;20054;-46
2023/01/26 13:56:37;;;;;;;16.08;9.40;;;;;;;0.68;81.77;97646.97;10282235;28;21469;-47
2023/01/26 14:01:41;;;;;;;14.85;8.82;;;;;;;0.68;81.90;97645.28;10278439;28;20520;-46
2023/01/26 14:06:45;;;;;;;11.85;6.78;;;;;;;0.48;81.57;97605.41;10284760;28;20113;-47
2023/01/26 14:11:52;;;;;;;15.40;10.43;;;;;;;0.72;81.50;97625.84;10282981;28;20060;-46
2023/01/26 14:16:52;;;;;;;18.05;10.20;;;;;;;0.45;81.86;97584.84;10286551;28;20058;-49
2023/01/26 14:21:55;;;;;;;18.98;10.15;;;;;;;0.61;82.62;97622.03;10280271;28;20113;-47
2023/01/26 14:26:54;;;;;;;59.90;27.73;;;;;;;0.64;83.01;97617.91;10285296;28;20064;-49
2023/01/26 14:31:54;;;;;;;;;;;;;;;0.48;83.47;97616.50;10287904;28;20073;-47
2023/01/26 14:37:13;;;;;;;25.38;13.75;;;;;;;0.54;84.44;97614.97;10287025;28;19957;-48
2023/01/26 14:42:15;;;;;;;25.33;13.82;;;;;;;0.41;84.57;97583.91;10285530;28;20061;-49
2023/01/26 14:47:29;;;;;;;85.65;45.72;;;;;;;0.78;85.40;97610.75;10285916;28;20073;-46
2023/01/26 14:52:39;;;;;;;26.00;15.23;;;;;;;0.89;84.25;97609.41;10284974;28;20579;-48
2023/01/26 14:57:38;;;;;;;34.05;14.00;;;;;;;0.40;85.52;97609.34;10285390;28;20061;-47
2023/01/26 15:02:41;;;;;;;;;;;;;;;0.45;85.81;97606.16;10286702;28;20144;-46
2023/01/26 15:07:54;;;;;;;16.63;9.45;;;;;;;0.54;85.54;97597.94;10280752;28;19954;-50
2023/01/26 15:13:19;;;;;;;20.27;12.30;;;;;;;0.74;85.34;97596.13;10286106;28;20073;-47
2023/01/26 15:18:19;;;;;;;20.25;11.25;;;;;;;0.65;84.84;97593.22;10283230;28;20076;-47
2023/01/26 15:23:23;;;;;;;19.40;9.80;;;;;;;0.69;84.74;97585.75;10286489;28;20061;-48
2023/01/26 15:28:24;;;;;;;26.95;13.48;;;;;;;0.47;85.12;97550.94;10285359;28;20069;-49
2023/01/26 15:33:43;;;;;;;23.88;12.75;;;;;;;0.66;85.26;97580.53;10283615;28;20058;-47
2023/01/26 15:38:42;;;;;;;24.73;13.85;;;;;;;0.17;85.83;97552.38;10276572;28;20064;-68
2023/01/26 15:43:41;;;;;;;23.63;13.35;;;;;;;0.47;85.35;97580.69;10281774;28;20501;-48
2023/01/26 15:48:40;;;;;;;;;;;;;;;0.47;85.78;97570.47;10284392;28;20493;-47
2023/01/26 15:53:39;;;;;;;15.55;8.25;;;;;;;0.11;85.26;97511.34;10285462;28;19917;-48
2023/01/26 15:58:38;;;;;;;;;;;;;;;0.40;85.02;97555.75;10284977;28;20064;-48
2023/01/26 16:03:36;;;;;;;25.10;14.77;;;;;;;0.29;85.82;97564.69;10284417;28;19921;-48
2023/01/26 16:08:35;;;;;;;31.15;17.48;;;;;;;0.49;86.30;97556.06;10285129;28;20129;-47
2023/01/26 16:13:34;;;;;;;;;;;;;;;0.71;86.70;97555.16;10284744;28;20112;-48
2023/01/26 16:18:33;;;;;;;55.97;35.22;;;;;;;0.79;86.53;97553.72;10284689;28;19924;-47
2023/01/26 16:23:32;;;;;;;32.08;18.60;;;;;;;0.85;86.10;97545.38;10282372;28;20622;-49
2023/01/26 16:28:31;;;;;;;36.60;22.63;;;;;;;0.88;86.38;97536.16;10284900;28;20722;-47
2023/01/26 16:33:30;;;;;;;28.75;17.20;;;;;;;0.91;86.69;97535.38;10285870;28;20033;-47
2023/01/26 16:38:29;;;;;;;34.90;21.95;;;;;;;0.82;86.67;97535.94;10285256;28;20041;-49
2023/01/26 16:43:29;;;;;;;74.22;35.80;;;;;;;0.90;86.77;97539.63;10286806;28;20030;-47
2023/01/26 16:48:33;;;;;;;51.97;27.35;;;;;;;0.72;86.51;97510.91;10287343;28;20753;-49
2023/01/26 16:53:33;;;;;;;126.38;59.72;;;;;;;0.96;87.31;97535.53;10287824;28;20472;-47
2023/01/26 16:58:32;;;;;;;265.20;112.85;;;;;;;1.01;87.61;97532.28;10286941;28;20069;-47
2023/01/26 17:03:32;;;;;;;106.30;51.80;;;;;;;0.77;87.05;97481.28;10289923;28;20044;-47
2023/01/26 17:08:31;;;;;;;150.73;73.45;;;;;;;1.03;87.01;97533.22;10297553;28;20070;-48
2023/01/26 17:13:31;;;;;;;61.28;30.45;;;;;;;0.82;86.87;97524.84;10289454;28;20025;-47
2023/01/26 17:18:32;;;;;;;164.93;77.88;;;;;;;0.89;86.42;97517.44;10288498;28;20069;-48
2023/01/26 17:23:31;;;;;;;196.20;88.20;;;;;;;0.80;87.11;97486.50;10290140;28;20080;-48
2023/01/26 17:28:30;;;;;;;48.85;25.08;;;;;;;0.91;87.06;97484.28;10288622;28;20085;-47
2023/01/26 17:33:29;;;;;;;69.30;36.47;;;;;;;1.07;87.11;97501.84;10287979;28;20033;-47
2023/01/26 17:38:28;;;;;;;79.63;39.78;;;;;;;0.84;86.69;97460.22;10281119;28;20462;-48
2023/01/26 17:43:27;;;;;;;96.22;46.58;;;;;;;1.10;86.45;97504.50;10285144;28;20077;-47
2023/01/26 17:48:26;;;;;;;30.10;17.00;;;;;;;1.08;86.34;97505.25;10284461;28;20065;-48
2023/01/26 17:53:26;;;;;;;75.55;47.50;;;;;;;1.02;85.53;97492.31;10287485;28;20109;-47
2023/01/26 17:58:25;;;;;;;40.00;22.30;;;;;;;1.01;86.27;97486.31;10288585;28;20496;-47
2023/01/26 18:03:27;;;;;;;125.07;53.83;;;;;;;1.07;86.75;97480.53;10285795;28;20440;-47
2023/01/26 18:08:26;;;;;;;206.52;67.53;;;;;;;1.12;86.84;97476.44;10287111;28;20069;-48
2023/01/26 18:13:26;;;;;;;247.88;86.13;;;;;;;0.98;86.45;97463.22;10287716;28;20061;-47
2023/01/26 18:18:28;;;;;;;301.15;102.03;;;;;;;1.06;86.68;97464.34;10286257;28;20489;-50
2023/01/26 18:23:27;;;;;;;534.45;210.63;;;;;;;1.09;87.24;97453.34;10287572;28;20092;-48
2023/01/26 18:28:26;;;;;;;248.45;99.18;;;;;;;1.14;86.75;97445.84;10285947;28;20485;-47
2023/01/26 18:33:25;;;;;;;459.73;186.93;;;;;;;1.09;86.72;97431.22;10283211;28;20052;-50
2023/01/26 18:38:24;;;;;;;118.65;47.60;;;;;;;1.13;86.82;97424.53;10285234;28;20042;-49
2023/01/26 18:43:26;;;;;;;169.15;70.88;;;;;;;0.85;86.18;97427.88;10285639;28;20034;-47
2023/01/26 18:48:25;;;;;;;64.10;30.48;;;;;;;0.79;86.71;97422.59;10286226;28;20084;-49
2023/01/26 18:53:24;;;;;;;;;;;;;;;0.88;87.21;97428.00;10286888;28;20065;-48
2023/01/26 18:58:23;;;;;;;51.72;28.65;;;;;;;0.87;87.24;97403.25;10285676;28;20320;-47
2023/01/26 19:03:22;;;;;;;134.40;65.20;;;;;;;0.88;87.07;97393.09;10284853;28;20145;-48
2023/01/26 19:08:23;;;;;;;;;;;;;;;0.90;86.58;97390.59;10286453;28;20080;-55
2023/01/26 19:13:22;;;;;;;82.03;45.67;;;;;;;0.95;87.07;97385.63;10285188;28;19956;-47
2023/01/26 19:18:21;;;;;;;42.55;24.15;;;;;;;0.94;87.13;97369.41;10281377;28;20582;-48
2023/01/26 19:23:21;;;;;;;42.00;24.20;;;;;;;1.03;86.68;97372.25;10285086;28;20491;-49
2023/01/26 19:28:20;;;;;;;53.10;29.25;;;;;;;0.62;86.16;97307.16;10284885;28;20308;-47
2023/01/26 19:33:27;;;;;;;58.95;32.88;;;;;;;0.87;86.45;97355.63;10284197;28;20041;-47
2023/01/26 19:38:26;;;;;;;57.70;33.65;;;;;;;0.67;86.72;97310.72;10285475;28;20073;-47
2023/01/26 19:43:26;;;;;;;130.50;62.53;;;;;;;0.97;86.61;97335.47;10284431;28;20034;-47
2023/01/26 19:48:26;;;;;;;38.78;18.80;;;;;;;0.95;85.98;97329.44;10285304;28;20073;-47
2023/01/26 19:53:26;;;;;;;88.53;34.80;;;;;;;0.88;86.58;97326.69;10284600;28;20053;-47
2023/01/26 19:58:26;;;;;;;64.13;30.40;;;;;;;0.90;86.74;97326.75;10282132;28;20072;-47
2023/01/26 20:03:25;;;;;;;490.42;206.07;;;;;;;0.67;85.90;97305.59;10282349;28;20089;-49
2023/01/26 20:08:25;;;;;;;373.48;152.23;;;;;;;0.75;86.67;97308.38;10282801;28;20046;-47
2023/01/26 20:13:24;;;;;;;58.63;30.05;;;;;;;0.80;86.66;97317.03;10283814;28;20065;-48
2023/01/26 20:18:24;;;;;;;42.42;25.40;;;;;;;0.89;86.59;97299.44;10289602;28;20121;-48
2023/01/26 20:23:23;;;;;;;42.08;24.00;;;;;;;0.89;86.31;97295.19;10291019;28;20069;-47
2023/01/26 20:28:22;;;;;;;;;;;;;;;0.98;86.55;97296.28;10291375;28;20073;-49
2023/01/26 20:33:21;;;;;;;38.72;18.05;;;;;;;1.04;86.02;97299.91;10288318;28;19917;-49
2023/01/26 20:38:19;;;;;;;68.57;31.52;;;;;;;1.00;85.51;97292.09;10287593;28;20036;-49
2023/01/26 20:43:18;;;;;;;;;;;;;;;1.02;85.78;97278.53;10290371;28;20404;-48
2023/01/26 20:48:17;;;;;;;22.73;13.18;;;;;;;0.71;84.61;97245.25;10292328;28;19984;-49
2023/01/26 20:53:16;;;;;;;27.10;16.10;;;;;;;0.68;85.66;97257.13;10290257;28;20132;-48
2023/01/26 20:58:15;;;;;;;36.97;21.45;;;;;;;0.61;85.03;97252.66;10292304;28;20493;-47
2023/01/26 21:03:14;;;;;;;53.58;32.47;;;;;;;0.69;85.98;97247.78;10291672;28;20048;-47
2023/01/26 21:08:13;;;;;;;;;;;;;;;0.61;84.98;97236.47;10290034;28;20066;-47
2023/01/26 21:13:12;;;;;;;26.90;15.00;;;;;;;0.67;84.57;97223.91;10287638;28;19991;-47
2023/01/26 21:18:11;;;;;;;;;;;;;;;0.68;84.99;97223.91;10291058;28;20056;-47
2023/01/26 21:23:10;;;;;;;37.40;21.27;;;;;;;0.73;85.12;97216.38;10288235;28;19921;-49
2023/01/26 21:28:09;;;;;;;727.00;300.33;;;;;;;0.74;85.42;97230.91;10290067;28;20129;-47
2023/01/26 21:33:07;;;;;;;89.95;41.65;;;;;;;0.82;85.63;97226.00;10289627;28;20030;-47
2023/01/26 21:38:06;;;;;;;52.78;27.13;;;;;;;0.87;85.63;97233.00;10289844;28;20577;-49
2023/01/26 21:43:05;;;;;;;233.07;103.28;;;;;;;0.73;85.49;97218.94;10287580;28;20060;-47
2023/01/26 21:53:23;;;;;;;56.08;32.60;;;;;;;0.94;85.50;97207.63;10289630;28;20068;-49
2023/01/26 22:03:39;;;;;;;51.42;26.50;;;;;;;0.94;85.72;97184.63;10289284;28;20470;-48
2023/01/26 22:08:38;;;;;;;36.92;19.63;;;;;;;0.70;85.47;97172.91;10287663;28;20492;-47
2023/01/26 22:13:37;;;;;;;51.08;26.95;;;;;;;0.47;85.75;97149.28;10275775;28;20899;-47
2023/01/26 22:18:37;;;;;;;45.88;22.92;;;;;;;0.42;85.93;97110.84;10290611;28;20634;-47
2023/01/26 22:23:37;;;;;;;58.03;30.63;;;;;;;0.94;85.89;97162.50;10288264;28;20493;-48
2023/01/26 22:28:36;;;;;;;39.45;21.27;;;;;;;0.98;85.49;97171.97;10288276;28;20088;-50
2023/01/26 22:33:36;;;;;;;26.60;15.77;;;;;;;0.98;85.36;97168.56;10287477;28;20052;-47
2023/01/26 22:38:35;;;;;;;38.63;22.00;;;;;;;0.80;84.94;97169.81;10285518;28;20065;-47
2023/01/26 22:43:34;;;;;;;42.17;22.08;;;;;;;0.84;85.57;97150.31;10286496;28;20064;-47
2023/01/26 22:48:33;;;;;;;35.85;19.20;;;;;;;0.80;85.62;97154.47;10286165;28;20048;-47
2023/01/26 22:53:32;;;;;;;;;;;;;;;0.80;85.32;97140.81;10286287;28;20485;-49
2023/01/26 22:58:33;;;;;;;54.83;30.60;;;;;;;0.72;85.55;97132.09;10287277;28;19952;-48
2023/01/26 23:03:32;;;;;;;55.78;30.13;;;;;;;0.79;85.98;97119.53;10285944;28;20512;-49
2023/01/26 23:08:31;;;;;;;35.25;20.33;;;;;;;0.85;85.69;97117.16;10285686;28;20065;-49
2023/01/26 23:13:31;;;;;;;80.22;40.22;;;;;;;0.74;85.57;97108.34;10285544;28;20477;-49
2023/01/26 23:18:31;;;;;;;60.13;33.40;;;;;;;0.59;85.56;97074.72;10282770;28;20061;-47
2023/01/26 23:23:30;;;;;;;49.88;24.80;;;;;;;0.69;86.01;97110.75;10283219;28;20357;-47
2023/01/26 23:28:35;;;;;;;62.97;30.42;;;;;;;0.56;85.99;97069.53;10283233;28;20111;-49
2023/01/26 23:33:35;;;;;;;69.45;34.20;;;;;;;0.39;86.26;97016.34;10280515;28;20061;-48
2023/01/26 23:38:34;;;;;;;68.28;34.75;;;;;;;0.87;86.32;97089.97;10285855;28;20068;-48
2023/01/26 23:43:33;;;;;;;;;;;;;;;0.87;85.40;97087.41;10277402;28;20070;-47
2023/01/26 23:48:32;;;;;;;41.15;22.35;;;;;;;0.88;85.70;97073.81;10287161;28;19953;-47
2023/01/26 23:53:32;;;;;;;31.75;17.30;;;;;;;0.95;85.78;97076.53;10294262;28;20069;-48
2023/01/26 23:58:31;;;;;;;30.52;18.10;;;;;;;0.95;85.76;97058.66;10296777;28;20065;-48
